EZY73PM LGKR-EGGW
Flight info
| Callsign | EZY73PM |
|---|---|
| Flight time | N/A |
| Altitude | 38000 |
| Route | OLGAT L53 OKIMO DCT AIOSA DCT PEVAL DCT MOBDO DCT SOTOV DCT KPT L608 KUNOD DCT LIRSU DCT KOZUF DCT IMPOH DCT SASKI L608 SUMUM Y6 TOSVA |
| Aircraft | A20N/M-SDE2E3FGHIRWXY/LB1 |
Departure
| Time | 2026-05-04 13:13 |
|---|---|
| Airport | Corfu Ioannis Kapodistrias International Airport (LGKR) |
Arrival
| Time | N/A |
|---|---|
| Airport | London Luton Airport (EGGW) |
| Time | Latitude | Longitude | Altitude | Speed | Heading |
|---|---|---|---|---|---|
| 2026-05-04 12:30 | 39.60778 | 19.91302 | 9 ft | 0 kts | 78° |
| 2026-05-04 13:10 | 39.60772 | 19.91315 | 9 ft | 6 kts | 127° |
| 2026-05-04 13:10 | 39.60682 | 19.91293 | 9 ft | 25 kts | 214° |
| 2026-05-04 13:10 | 39.60508 | 19.91159 | 8 ft | 31 kts | 195° |
| 2026-05-04 13:11 | 39.60285 | 19.91202 | 10 ft | 35 kts | 170° |
| 2026-05-04 13:11 | 39.60020 | 19.91266 | 10 ft | 44 kts | 168° |
| 2026-05-04 13:11 | 39.59696 | 19.91343 | 8 ft | 51 kts | 169° |
| 2026-05-04 13:11 | 39.59377 | 19.91425 | 5 ft | 39 kts | 168° |
| 2026-05-04 13:12 | 39.59192 | 19.91498 | 5 ft | 12 kts | 169° |
| 2026-05-04 13:12 | 39.59169 | 19.91454 | 5 ft | 8 kts | 330° |
| 2026-05-04 13:12 | 39.59212 | 19.91469 | 5 ft | 0 kts | 345° |
| 2026-05-04 13:12 | 39.59258 | 19.91457 | 6 ft | 35 kts | 348° |
| 2026-05-04 13:13 | 39.59788 | 19.91322 | 9 ft | 116 kts | 348° |
| 2026-05-04 13:13 | 39.60791 | 19.91058 | 59 ft | 170 kts | 349° |
| 2026-05-04 13:13 | 39.61926 | 19.90798 | 902 ft | 162 kts | 350° |
| 2026-05-04 13:13 | 39.63018 | 19.90582 | 1753 ft | 159 kts | 349° |
| 2026-05-04 13:14 | 39.64128 | 19.90371 | 2382 ft | 166 kts | 347° |
| 2026-05-04 13:14 | 39.65227 | 19.89774 | 2820 ft | 183 kts | 317° |
| 2026-05-04 13:14 | 39.66122 | 19.88486 | 3262 ft | 202 kts | 307° |
| 2026-05-04 13:14 | 39.67034 | 19.86957 | 3723 ft | 227 kts | 309° |
| 2026-05-04 13:15 | 39.67994 | 19.85431 | 4186 ft | 247 kts | 310° |
| 2026-05-04 13:15 | 39.69145 | 19.83671 | 4862 ft | 262 kts | 311° |
| 2026-05-04 13:15 | 39.70346 | 19.81872 | 5779 ft | 265 kts | 312° |
| 2026-05-04 13:15 | 39.71128 | 19.80705 | 6393 ft | 268 kts | 313° |
| 2026-05-04 13:16 | 39.72451 | 19.78726 | 7415 ft | 266 kts | 313° |
| 2026-05-04 13:16 | 39.73672 | 19.76904 | 8325 ft | 269 kts | 313° |
| 2026-05-04 13:16 | 39.74891 | 19.75086 | 9232 ft | 272 kts | 313° |
| 2026-05-04 13:16 | 39.76136 | 19.73225 | 10149 ft | 274 kts | 313° |
| 2026-05-04 13:17 | 39.77415 | 19.71313 | 10680 ft | 290 kts | 313° |
| 2026-05-04 13:17 | 39.78791 | 19.69257 | 10960 ft | 313 kts | 313° |
| 2026-05-04 13:17 | 39.80256 | 19.67064 | 11463 ft | 325 kts | 313° |
| 2026-05-04 13:17 | 39.81741 | 19.64832 | 12276 ft | 327 kts | 313° |
| 2026-05-04 13:18 | 39.83217 | 19.62611 | 13073 ft | 330 kts | 313° |
| 2026-05-04 13:18 | 39.84747 | 19.60307 | 13874 ft | 334 kts | 314° |
| 2026-05-04 13:18 | 39.86228 | 19.58079 | 14567 ft | 336 kts | 314° |
| 2026-05-04 13:18 | 39.87760 | 19.55776 | 15327 ft | 337 kts | 314° |
| 2026-05-04 13:19 | 39.89303 | 19.53455 | 16006 ft | 341 kts | 314° |
| 2026-05-04 13:19 | 39.90858 | 19.51113 | 16723 ft | 343 kts | 314° |
| 2026-05-04 13:19 | 39.92423 | 19.48755 | 17419 ft | 345 kts | 314° |
| 2026-05-04 13:19 | 39.93997 | 19.46378 | 18110 ft | 348 kts | 314° |
| 2026-05-04 13:20 | 39.95579 | 19.43988 | 18685 ft | 351 kts | 313° |
| 2026-05-04 13:20 | 39.97181 | 19.41565 | 19272 ft | 354 kts | 313° |
| 2026-05-04 13:20 | 39.98771 | 19.39159 | 19852 ft | 356 kts | 313° |
| 2026-05-04 13:20 | 40.00393 | 19.36702 | 20427 ft | 359 kts | 313° |
| 2026-05-04 13:21 | 40.02027 | 19.34225 | 20994 ft | 362 kts | 313° |
| 2026-05-04 13:21 | 40.03671 | 19.31731 | 21555 ft | 364 kts | 313° |
| 2026-05-04 13:21 | 40.05329 | 19.29215 | 22117 ft | 367 kts | 313° |
| 2026-05-04 13:21 | 40.07000 | 19.26680 | 22669 ft | 370 kts | 313° |
| 2026-05-04 13:22 | 40.08683 | 19.24126 | 23215 ft | 373 kts | 313° |
| 2026-05-04 13:22 | 40.10370 | 19.21560 | 23736 ft | 375 kts | 313° |
| 2026-05-04 13:22 | 40.12083 | 19.18952 | 24215 ft | 377 kts | 313° |
| 2026-05-04 13:22 | 40.13769 | 19.16381 | 24694 ft | 378 kts | 313° |
| 2026-05-04 13:23 | 40.15484 | 19.13764 | 25152 ft | 380 kts | 313° |
| 2026-05-04 13:23 | 40.17208 | 19.11130 | 25556 ft | 383 kts | 313° |
| 2026-05-04 13:23 | 40.18949 | 19.08471 | 25900 ft | 387 kts | 313° |
| 2026-05-04 13:23 | 40.20700 | 19.05792 | 26371 ft | 388 kts | 313° |
| 2026-05-04 13:24 | 40.22453 | 19.03106 | 26799 ft | 389 kts | 313° |
| 2026-05-04 13:24 | 40.24214 | 19.00408 | 27208 ft | 391 kts | 313° |
| 2026-05-04 13:24 | 40.26010 | 18.97740 | 27615 ft | 392 kts | 315° |
| 2026-05-04 13:25 | 40.29804 | 18.92638 | 28379 ft | 395 kts | 316° |
| 2026-05-04 13:25 | 40.31733 | 18.90064 | 28747 ft | 397 kts | 316° |
| 2026-05-04 13:25 | 40.33663 | 18.87464 | 29109 ft | 399 kts | 316° |
| 2026-05-04 13:25 | 40.35591 | 18.84844 | 29445 ft | 400 kts | 315° |
| 2026-05-04 13:26 | 40.37525 | 18.82203 | 29774 ft | 402 kts | 315° |
| 2026-05-04 13:26 | 40.39465 | 18.79548 | 30106 ft | 404 kts | 315° |
| 2026-05-04 13:26 | 40.41413 | 18.76880 | 30367 ft | 406 kts | 315° |
| 2026-05-04 13:26 | 40.43372 | 18.74195 | 30609 ft | 409 kts | 315° |
| 2026-05-04 13:27 | 40.45287 | 18.71566 | 30895 ft | 410 kts | 315° |
| 2026-05-04 13:27 | 40.47263 | 18.68853 | 31172 ft | 412 kts | 315° |
| 2026-05-04 13:27 | 40.49241 | 18.66134 | 31530 ft | 411 kts | 315° |
| 2026-05-04 13:27 | 40.51213 | 18.63420 | 31923 ft | 410 kts | 315° |
| 2026-05-04 13:28 | 40.53177 | 18.60714 | 32319 ft | 408 kts | 314° |
| 2026-05-04 13:28 | 40.55132 | 18.58017 | 32693 ft | 407 kts | 314° |
| 2026-05-04 13:28 | 40.57080 | 18.55326 | 33059 ft | 405 kts | 314° |
| 2026-05-04 13:28 | 40.58993 | 18.52680 | 33422 ft | 404 kts | 314° |
| 2026-05-04 13:29 | 40.60929 | 18.50002 | 33761 ft | 403 kts | 314° |
| 2026-05-04 13:29 | 40.62856 | 18.47335 | 34092 ft | 402 kts | 314° |
| 2026-05-04 13:29 | 40.64780 | 18.44670 | 34364 ft | 401 kts | 314° |
| 2026-05-04 13:29 | 40.66702 | 18.42007 | 34533 ft | 403 kts | 314° |
| 2026-05-04 13:30 | 40.68628 | 18.39336 | 34644 ft | 405 kts | 314° |
| 2026-05-04 13:30 | 40.70569 | 18.36640 | 34880 ft | 405 kts | 314° |
| 2026-05-04 13:30 | 40.72228 | 18.34328 | 35099 ft | 404 kts | 314° |
| 2026-05-04 13:30 | 40.74161 | 18.31640 | 35330 ft | 404 kts | 314° |
| 2026-05-04 13:31 | 40.76069 | 18.28985 | 35533 ft | 404 kts | 314° |
| 2026-05-04 13:31 | 40.78002 | 18.26293 | 35732 ft | 404 kts | 314° |
| 2026-05-04 13:31 | 40.79935 | 18.23599 | 35928 ft | 404 kts | 314° |
| 2026-05-04 13:31 | 40.81866 | 18.20903 | 36119 ft | 404 kts | 314° |
| 2026-05-04 13:32 | 40.83797 | 18.18206 | 36311 ft | 404 kts | 314° |
| 2026-05-04 13:32 | 40.85727 | 18.15506 | 36492 ft | 404 kts | 314° |
| 2026-05-04 13:32 | 40.87656 | 18.12806 | 36669 ft | 404 kts | 314° |
| 2026-05-04 13:32 | 40.89557 | 18.10142 | 36836 ft | 404 kts | 314° |
| 2026-05-04 13:33 | 40.91492 | 18.07447 | 37012 ft | 404 kts | 316° |
| 2026-05-04 13:33 | 40.93583 | 18.04971 | 37163 ft | 404 kts | 322° |
| 2026-05-04 13:33 | 40.95870 | 18.02814 | 37312 ft | 404 kts | 327° |
| 2026-05-04 13:33 | 40.98284 | 18.00908 | 37460 ft | 404 kts | 328° |
| 2026-05-04 13:34 | 41.00703 | 17.98999 | 37572 ft | 405 kts | 328° |
| 2026-05-04 13:34 | 41.03074 | 17.97115 | 37717 ft | 405 kts | 328° |
| 2026-05-04 13:34 | 41.05491 | 17.95194 | 37859 ft | 405 kts | 328° |
| 2026-05-04 13:34 | 41.07906 | 17.93274 | 37988 ft | 405 kts | 328° |
| 2026-05-04 13:35 | 41.10290 | 17.91380 | 38103 ft | 405 kts | 328° |
| 2026-05-04 13:35 | 41.15117 | 17.87543 | 38116 ft | 404 kts | 328° |
| 2026-05-04 13:36 | 41.19937 | 17.83706 | 38114 ft | 404 kts | 328° |
| 2026-05-04 13:36 | 41.24765 | 17.79855 | 38113 ft | 406 kts | 328° |
| 2026-05-04 13:37 | 41.29567 | 17.76019 | 38114 ft | 405 kts | 328° |
| 2026-05-04 13:37 | 41.34394 | 17.72158 | 38102 ft | 404 kts | 328° |
| 2026-05-04 13:38 | 41.39209 | 17.68297 | 38103 ft | 404 kts | 328° |
| 2026-05-04 13:38 | 41.44025 | 17.64429 | 38101 ft | 404 kts | 328° |
| 2026-05-04 13:39 | 41.48806 | 17.60584 | 38101 ft | 404 kts | 328° |
| 2026-05-04 13:39 | 41.53613 | 17.56709 | 38102 ft | 404 kts | 328° |